sensor_id;sensor_type;location;lat;lon;timestamp;pressure;altitude;pressure_sealevel;temperature;humidity
62402;BME280;48440;51.224;22.506;2023-06-14T00:00:11;99226.66;;;13.05;80.15
62402;BME280;48440;51.224;22.506;2023-06-14T00:02:39;99228.00;;;13.03;80.58
62402;BME280;48440;51.224;22.506;2023-06-14T00:08:39;99224.75;;;13.01;80.80
62402;BME280;48440;51.224;22.506;2023-06-14T00:11:28;99228.81;;;13.03;80.39
62402;BME280;48440;51.224;22.506;2023-06-14T00:18:00;99221.75;;;13.02;80.87
62402;BME280;48440;51.224;22.506;2023-06-14T00:35:00;99215.75;;;13.05;80.54
62402;BME280;48440;51.224;22.506;2023-06-14T00:38:09;99207.84;;;13.04;80.59
62402;BME280;48440;51.224;22.506;2023-06-14T00:41:00;99207.88;;;13.09;80.33
62402;BME280;48440;51.224;22.506;2023-06-14T00:43:31;99206.78;;;13.05;80.56
62402;BME280;48440;51.224;22.506;2023-06-14T00:46:55;99203.22;;;13.04;80.55
62402;BME280;48440;51.224;22.506;2023-06-14T01:18:54;99190.16;;;13.06;79.95
62402;BME280;48440;51.224;22.506;2023-06-14T01:25:15;99192.06;;;13.06;79.86
62402;BME280;48440;51.224;22.506;2023-06-14T01:39:32;99177.06;;;13.03;80.63
62402;BME280;48440;51.224;22.506;2023-06-14T01:45:39;99183.34;;;13.04;80.81
62402;BME280;48440;51.224;22.506;2023-06-14T01:48:22;99178.44;;;13.06;80.89
62402;BME280;48440;51.224;22.506;2023-06-14T02:05:22;99155.00;;;13.05;81.00
62402;BME280;48440;51.224;22.506;2023-06-14T02:07:49;99158.81;;;13.04;81.17
62402;BME280;48440;51.224;22.506;2023-06-14T02:20:54;99157.75;;;13.00;81.76
62402;BME280;48440;51.224;22.506;2023-06-14T02:23:20;99162.09;;;13.01;81.58
62402;BME280;48440;51.224;22.506;2023-06-14T02:25:46;99160.19;;;13.01;81.62
62402;BME280;48440;51.224;22.506;2023-06-14T02:28:11;99152.00;;;13.01;81.72
62402;BME280;48440;51.224;22.506;2023-06-14T02:30:37;99150.94;;;13.02;81.42
62402;BME280;48440;51.224;22.506;2023-06-14T02:33:03;99152.00;;;13.01;81.63
62402;BME280;48440;51.224;22.506;2023-06-14T02:39:22;99142.75;;;13.02;81.65
62402;BME280;48440;51.224;22.506;2023-06-14T02:41:50;99142.75;;;13.02;81.56
62402;BME280;48440;51.224;22.506;2023-06-14T03:16:33;99157.75;;;13.10;80.92
62402;BME280;48440;51.224;22.506;2023-06-14T03:22:33;99166.44;;;13.37;80.21
62402;BME280;48440;51.224;22.506;2023-06-14T03:25:21;99167.75;;;13.55;79.80
62402;BME280;48440;51.224;22.506;2023-06-14T03:28:14;99174.81;;;13.71;79.18
62402;BME280;48440;51.224;22.506;2023-06-14T03:30:40;99177.75;;;13.85;78.42
62402;BME280;48440;51.224;22.506;2023-06-14T03:33:08;99174.69;;;13.97;78.16
62402;BME280;48440;51.224;22.506;2023-06-14T03:35:36;99192.34;;;14.09;77.90
62402;BME280;48440;51.224;22.506;2023-06-14T03:41:34;99183.56;;;14.27;76.65
62402;BME280;48440;51.224;22.506;2023-06-14T03:44:21;99165.50;;;14.32;76.29
62402;BME280;48440;51.224;22.506;2023-06-14T03:46:47;99171.19;;;14.40;75.99
62402;BME280;48440;51.224;22.506;2023-06-14T03:49:22;99160.78;;;14.47;75.47
62402;BME280;48440;51.224;22.506;2023-06-14T03:51:48;99164.31;;;14.53;75.00
62402;BME280;48440;51.224;22.506;2023-06-14T04:04:31;99170.31;;;14.55;73.94
62402;BME280;48440;51.224;22.506;2023-06-14T04:24:49;99173.44;;;15.06;72.19
62402;BME280;48440;51.224;22.506;2023-06-14T04:27:49;99185.13;;;15.12;71.76
62402;BME280;48440;51.224;22.506;2023-06-14T04:41:58;99188.44;;;14.80;72.17
62402;BME280;48440;51.224;22.506;2023-06-14T04:44:25;99187.66;;;14.74;71.75
62402;BME280;48440;51.224;22.506;2023-06-14T04:50:05;99194.78;;;14.65;72.08
62402;BME280;48440;51.224;22.506;2023-06-14T05:19:48;99178.25;;;14.85;73.10
62402;BME280;48440;51.224;22.506;2023-06-14T05:22:22;99174.13;;;14.88;72.39
62402;BME280;48440;51.224;22.506;2023-06-14T05:24:47;99182.56;;;14.91;71.89
62402;BME280;48440;51.224;22.506;2023-06-14T05:27:13;99181.25;;;14.84;72.40
62402;BME280;48440;51.224;22.506;2023-06-14T05:29:41;99182.38;;;14.83;72.35
62402;BME280;48440;51.224;22.506;2023-06-14T05:32:07;99182.66;;;14.81;72.93
62402;BME280;48440;51.224;22.506;2023-06-14T05:34:33;99180.72;;;14.82;73.16
62402;BME280;48440;51.224;22.506;2023-06-14T05:36:58;99179.06;;;14.86;72.92
62402;BME280;48440;51.224;22.506;2023-06-14T05:39:24;99187.59;;;14.79;73.02
62402;BME280;48440;51.224;22.506;2023-06-14T05:41:49;99181.03;;;14.80;72.45
62402;BME280;48440;51.224;22.506;2023-06-14T05:44:14;99177.72;;;14.83;72.65
62402;BME280;48440;51.224;22.506;2023-06-14T05:46:40;99178.25;;;14.85;72.02
62402;BME280;48440;51.224;22.506;2023-06-14T05:49:06;99177.72;;;14.83;72.24
62402;BME280;48440;51.224;22.506;2023-06-14T05:51:31;99176.63;;;14.84;72.25
62402;BME280;48440;51.224;22.506;2023-06-14T05:53:57;99188.91;;;14.87;72.39
62402;BME280;48440;51.224;22.506;2023-06-14T05:56:22;99182.63;;;14.86;72.45
62402;BME280;48440;51.224;22.506;2023-06-14T05:58:48;99190.28;;;14.84;72.53
62402;BME280;48440;51.224;22.506;2023-06-14T06:01:13;99193.81;;;14.85;72.25
62402;BME280;48440;51.224;22.506;2023-06-14T06:03:39;99191.38;;;14.83;72.55
62402;BME280;48440;51.224;22.506;2023-06-14T06:06:04;99191.97;;;14.80;73.04
62402;BME280;48440;51.224;22.506;2023-06-14T06:08:30;99192.25;;;14.79;72.81
62402;BME280;48440;51.224;22.506;2023-06-14T06:10:56;99190.63;;;14.78;72.83
62402;BME280;48440;51.224;22.506;2023-06-14T06:13:22;99206.19;;;14.77;73.25
62402;BME280;48440;51.224;22.506;2023-06-14T06:15:48;99203.78;;;14.71;73.79
62402;BME280;48440;51.224;22.506;2023-06-14T06:18:14;99202.97;;;14.70;74.03
62402;BME280;48440;51.224;22.506;2023-06-14T06:20:39;99195.84;;;14.74;74.45
62402;BME280;48440;51.224;22.506;2023-06-14T06:23:05;99201.00;;;14.76;74.61
62402;BME280;48440;51.224;22.506;2023-06-14T06:25:30;99198.81;;;14.78;74.46
62402;BME280;48440;51.224;22.506;2023-06-14T06:27:57;99200.44;;;14.79;74.76
62402;BME280;48440;51.224;22.506;2023-06-14T06:30:22;99205.31;;;14.82;74.68
62402;BME280;48440;51.224;22.506;2023-06-14T06:32:48;99206.13;;;14.82;74.34
62402;BME280;48440;51.224;22.506;2023-06-14T06:35:14;99207.75;;;14.83;74.66
62402;BME280;48440;51.224;22.506;2023-06-14T06:37:41;99201.44;;;14.88;74.19
62402;BME280;48440;51.224;22.506;2023-06-14T06:40:07;99200.88;;;14.91;74.06
62402;BME280;48440;51.224;22.506;2023-06-14T06:42:34;99208.19;;;15.01;74.05
62402;BME280;48440;51.224;22.506;2023-06-14T06:44:59;99205.47;;;15.01;73.52
62402;BME280;48440;51.224;22.506;2023-06-14T06:47:25;99207.63;;;15.04;73.37
62402;BME280;48440;51.224;22.506;2023-06-14T06:49:50;99212.81;;;15.05;73.56
62402;BME280;48440;51.224;22.506;2023-06-14T06:52:16;99223.13;;;15.08;73.42
62402;BME280;48440;51.224;22.506;2023-06-14T06:54:41;99219.59;;;15.08;72.83
62402;BME280;48440;51.224;22.506;2023-06-14T06:57:07;99223.47;;;15.07;73.02
62402;BME280;48440;51.224;22.506;2023-06-14T06:59:34;99223.13;;;15.08;73.05
62402;BME280;48440;51.224;22.506;2023-06-14T07:02:00;99222.03;;;15.09;72.84
62402;BME280;48440;51.224;22.506;2023-06-14T07:04:25;99221.22;;;15.09;73.08
62402;BME280;48440;51.224;22.506;2023-06-14T07:06:51;99221.47;;;15.12;73.12
62402;BME280;48440;51.224;22.506;2023-06-14T07:09:16;99220.34;;;15.18;73.53
62402;BME280;48440;51.224;22.506;2023-06-14T07:11:46;99215.66;;;15.24;73.21
62402;BME280;48440;51.224;22.506;2023-06-14T07:14:12;99219.44;;;15.28;73.38
62402;BME280;48440;51.224;22.506;2023-06-14T07:16:38;99217.81;;;15.27;72.92
62402;BME280;48440;51.224;22.506;2023-06-14T07:19:03;99223.00;;;15.28;72.88
62402;BME280;48440;51.224;22.506;2023-06-14T07:21:29;99232.00;;;15.29;73.03
62402;BME280;48440;51.224;22.506;2023-06-14T07:23:55;99225.66;;;15.34;72.99
62402;BME280;48440;51.224;22.506;2023-06-14T07:26:21;99217.69;;;15.37;72.99
62402;BME280;48440;51.224;22.506;2023-06-14T07:28:47;99217.94;;;15.41;72.98
62402;BME280;48440;51.224;22.506;2023-06-14T07:31:15;99221.44;;;15.46;72.42
62402;BME280;48440;51.224;22.506;2023-06-14T07:33:42;99214.31;;;15.50;72.30
62402;BME280;48440;51.224;22.506;2023-06-14T07:36:07;99212.91;;;15.58;72.00
62402;BME280;48440;51.224;22.506;2023-06-14T07:38:33;99221.84;;;15.64;71.79
62402;BME280;48440;51.224;22.506;2023-06-14T07:40:59;99222.06;;;15.67;71.36
62402;BME280;48440;51.224;22.506;2023-06-14T07:43:25;99212.72;;;15.73;71.44
62402;BME280;48440;51.224;22.506;2023-06-14T07:45:50;99218.66;;;15.80;71.29
62402;BME280;48440;51.224;22.506;2023-06-14T07:48:16;99223.72;;;15.92;71.25
62402;BME280;48440;51.224;22.506;2023-06-14T07:50:41;99223.09;;;16.00;70.25
62402;BME280;48440;51.224;22.506;2023-06-14T07:53:07;99224.38;;;16.08;70.26
62402;BME280;48440;51.224;22.506;2023-06-14T07:55:32;99224.22;;;16.18;70.42
62402;BME280;48440;51.224;22.506;2023-06-14T07:58:02;99219.97;;;16.31;70.40
62402;BME280;48440;51.224;22.506;2023-06-14T08:00:27;99224.19;;;16.42;69.41
62402;BME280;48440;51.224;22.506;2023-06-14T08:02:53;99208.50;;;16.47;68.99
62402;BME280;48440;51.224;22.506;2023-06-14T08:05:24;99208.88;;;16.59;68.50
62402;BME280;48440;51.224;22.506;2023-06-14T08:07:49;99203.84;;;16.67;68.11
62402;BME280;48440;51.224;22.506;2023-06-14T08:10:15;99207.50;;;16.81;67.96
62402;BME280;48440;51.224;22.506;2023-06-14T08:12:40;99202.06;;;16.94;67.10
62402;BME280;48440;51.224;22.506;2023-06-14T08:15:06;99201.22;;;17.13;67.18
62402;BME280;48440;51.224;22.506;2023-06-14T08:17:32;99193.66;;;17.37;65.87
62402;BME280;48440;51.224;22.506;2023-06-14T08:19:58;99185.81;;;17.77;66.00
62402;BME280;48440;51.224;22.506;2023-06-14T08:22:24;99186.47;;;18.23;64.86
62402;BME280;48440;51.224;22.506;2023-06-14T08:24:50;99183.00;;;18.81;64.20
62402;BME280;48440;51.224;22.506;2023-06-14T08:27:15;99183.06;;;19.12;61.86
62402;BME280;48440;51.224;22.506;2023-06-14T08:29:41;99181.94;;;19.13;60.36
62402;BME280;48440;51.224;22.506;2023-06-14T08:32:07;99186.53;;;19.26;59.92
62402;BME280;48440;51.224;22.506;2023-06-14T08:34:32;99177.88;;;19.11;56.50
62402;BME280;48440;51.224;22.506;2023-06-14T08:36:57;99185.63;;;18.86;57.10
62402;BME280;48440;51.224;22.506;2023-06-14T08:39:23;99183.31;;;18.80;58.26
62402;BME280;48440;51.224;22.506;2023-06-14T08:41:49;99172.78;;;18.46;59.99
62402;BME280;48440;51.224;22.506;2023-06-14T08:44:16;99181.50;;;18.25;60.48
62402;BME280;48440;51.224;22.506;2023-06-14T08:46:42;99183.97;;;18.13;61.19
62402;BME280;48440;51.224;22.506;2023-06-14T08:49:11;99184.78;;;18.00;62.34
62402;BME280;48440;51.224;22.506;2023-06-14T08:51:37;99183.97;;;18.00;62.15
62402;BME280;48440;51.224;22.506;2023-06-14T08:54:03;99183.88;;;18.05;62.59
62402;BME280;48440;51.224;22.506;2023-06-14T08:56:30;99175.31;;;18.06;62.28
62402;BME280;48440;51.224;22.506;2023-06-14T08:58:58;99179.97;;;18.19;62.11
62402;BME280;48440;51.224;22.506;2023-06-14T09:01:28;99179.38;;;18.58;61.17
62402;BME280;48440;51.224;22.506;2023-06-14T09:03:54;99174.88;;;18.98;61.12
62402;BME280;48440;51.224;22.506;2023-06-14T09:06:23;99171.38;;;19.07;59.61
62402;BME280;48440;51.224;22.506;2023-06-14T09:08:50;99171.88;;;18.86;59.15
62402;BME280;48440;51.224;22.506;2023-06-14T09:11:17;99176.63;;;18.58;59.68
62402;BME280;48440;51.224;22.506;2023-06-14T09:13:48;99176.41;;;18.33;59.85
62402;BME280;48440;51.224;22.506;2023-06-14T09:16:14;99186.19;;;18.11;59.98
62402;BME280;48440;51.224;22.506;2023-06-14T09:18:42;99185.81;;;17.90;61.13
62402;BME280;48440;51.224;22.506;2023-06-14T09:21:10;99187.44;;;17.78;61.35
62402;BME280;48440;51.224;22.506;2023-06-14T09:23:37;99191.50;;;17.67;61.52
62402;BME280;48440;51.224;22.506;2023-06-14T09:26:21;99190.03;;;17.55;61.33
62402;BME280;48440;51.224;22.506;2023-06-14T09:28:49;99185.53;;;17.46;61.44
62402;BME280;48440;51.224;22.506;2023-06-14T09:31:16;99190.63;;;17.39;62.03
62402;BME280;48440;51.224;22.506;2023-06-14T09:33:45;99182.78;;;17.32;61.71
62402;BME280;48440;51.224;22.506;2023-06-14T09:36:23;99188.13;;;17.23;62.67
62402;BME280;48440;51.224;22.506;2023-06-14T09:38:56;99188.44;;;17.22;62.86
62402;BME280;48440;51.224;22.506;2023-06-14T09:41:35;99183.56;;;17.19;62.86
62402;BME280;48440;51.224;22.506;2023-06-14T09:44:03;99189.44;;;17.12;62.97
62402;BME280;48440;51.224;22.506;2023-06-14T09:46:29;99187.00;;;17.11;62.97
62402;BME280;48440;51.224;22.506;2023-06-14T09:48:59;99184.03;;;17.07;62.59
62402;BME280;48440;51.224;22.506;2023-06-14T09:51:25;99190.34;;;17.08;62.73
62402;BME280;48440;51.224;22.506;2023-06-14T09:53:52;99181.31;;;17.07;62.76
62402;BME280;48440;51.224;22.506;2023-06-14T09:56:23;99187.69;;;17.03;62.70
62402;BME280;48440;51.224;22.506;2023-06-14T09:58:55;99193.16;;;17.03;63.37
62402;BME280;48440;51.224;22.506;2023-06-14T10:01:22;99199.75;;;17.02;63.81
62402;BME280;48440;51.224;22.506;2023-06-14T10:03:50;99195.09;;;17.02;63.70
62402;BME280;48440;51.224;22.506;2023-06-14T10:06:20;99194.28;;;17.02;63.45
62402;BME280;48440;51.224;22.506;2023-06-14T10:08:52;99197.31;;;17.00;63.57
62402;BME280;48440;51.224;22.506;2023-06-14T10:11:21;99206.34;;;17.01;64.03
62402;BME280;48440;51.224;22.506;2023-06-14T10:13:47;99201.38;;;17.03;64.09
62402;BME280;48440;51.224;22.506;2023-06-14T10:16:32;99198.34;;;17.04;64.10
62402;BME280;48440;51.224;22.506;2023-06-14T10:19:14;99199.97;;;17.05;64.36
62402;BME280;48440;51.224;22.506;2023-06-14T10:24:30;99202.19;;;17.03;64.64
62402;BME280;48440;51.224;22.506;2023-06-14T10:26:58;99195.38;;;17.01;64.51
62402;BME280;48440;51.224;22.506;2023-06-14T10:29:28;99195.97;;;16.98;64.75
62402;BME280;48440;51.224;22.506;2023-06-14T10:31:58;99199.59;;;16.93;64.92
62402;BME280;48440;51.224;22.506;2023-06-14T10:34:28;99202.34;;;16.93;65.20
62402;BME280;48440;51.224;22.506;2023-06-14T10:37:12;99200.53;;;16.88;65.32
62402;BME280;48440;51.224;22.506;2023-06-14T10:39:40;99200.19;;;16.90;65.66
62402;BME280;48440;51.224;22.506;2023-06-14T10:42:06;99199.38;;;16.89;66.04
62402;BME280;48440;51.224;22.506;2023-06-14T10:47:01;99201.25;;;16.94;66.84
62402;BME280;48440;51.224;22.506;2023-06-14T10:50:03;99206.72;;;16.94;66.32
62402;BME280;48440;51.224;22.506;2023-06-14T10:52:33;99191.31;;;16.98;66.19
62402;BME280;48440;51.224;22.506;2023-06-14T10:55:08;99196.41;;;17.05;66.02
62402;BME280;48440;51.224;22.506;2023-06-14T10:57:37;99202.63;;;17.10;66.17
62402;BME280;48440;51.224;22.506;2023-06-14T11:00:04;99207.53;;;17.13;65.99
62402;BME280;48440;51.224;22.506;2023-06-14T11:05:08;99188.34;;;17.27;65.23
62402;BME280;48440;51.224;22.506;2023-06-14T11:12:41;99200.22;;;17.22;63.86
62402;BME280;48440;51.224;22.506;2023-06-14T11:15:08;99204.78;;;17.13;63.88
62402;BME280;48440;51.224;22.506;2023-06-14T11:17:33;99198.84;;;17.06;63.86
62402;BME280;48440;51.224;22.506;2023-06-14T11:20:12;99201.16;;;16.99;64.12
62402;BME280;48440;51.224;22.506;2023-06-14T11:22:43;99199.91;;;16.91;64.45
62402;BME280;48440;51.224;22.506;2023-06-14T11:25:10;99202.75;;;16.86;64.74
62402;BME280;48440;51.224;22.506;2023-06-14T11:27:36;99203.34;;;16.83;64.85
62402;BME280;48440;51.224;22.506;2023-06-14T11:30:01;99193.78;;;16.81;64.87
62402;BME280;48440;51.224;22.506;2023-06-14T11:32:27;99182.53;;;16.82;64.99
62402;BME280;48440;51.224;22.506;2023-06-14T11:34:53;99180.31;;;16.84;64.98
62402;BME280;48440;51.224;22.506;2023-06-14T11:37:19;99186.59;;;16.85;64.84
62402;BME280;48440;51.224;22.506;2023-06-14T11:39:44;99185.50;;;16.86;65.66
62402;BME280;48440;51.224;22.506;2023-06-14T11:42:15;99189.34;;;16.85;65.44
62402;BME280;48440;51.224;22.506;2023-06-14T11:44:40;99192.38;;;16.83;65.86
62402;BME280;48440;51.224;22.506;2023-06-14T11:47:06;99189.41;;;16.80;66.00
62402;BME280;48440;51.224;22.506;2023-06-14T11:49:36;99191.13;;;16.76;66.88
62402;BME280;48440;51.224;22.506;2023-06-14T11:52:01;99192.81;;;16.72;67.31
62402;BME280;48440;51.224;22.506;2023-06-14T11:54:27;99194.81;;;16.66;67.76
62402;BME280;48440;51.224;22.506;2023-06-14T11:56:53;99198.13;;;16.63;68.27
62402;BME280;48440;51.224;22.506;2023-06-14T11:59:20;99197.94;;;16.59;69.01
62402;BME280;48440;51.224;22.506;2023-06-14T12:01:47;99203.19;;;16.56;69.35
62402;BME280;48440;51.224;22.506;2023-06-14T12:04:13;99203.25;;;16.51;69.49
62402;BME280;48440;51.224;22.506;2023-06-14T12:06:38;99203.59;;;16.44;70.08
62402;BME280;48440;51.224;22.506;2023-06-14T12:09:07;99206.94;;;16.41;70.73
62402;BME280;48440;51.224;22.506;2023-06-14T12:11:38;99206.50;;;16.34;72.28
62402;BME280;48440;51.224;22.506;2023-06-14T12:14:04;99221.88;;;16.30;73.22
62402;BME280;48440;51.224;22.506;2023-06-14T12:16:35;99214.78;;;16.29;73.38
62402;BME280;48440;51.224;22.506;2023-06-14T12:19:15;99221.38;;;16.28;74.42
62402;BME280;48440;51.224;22.506;2023-06-14T12:21:42;99222.47;;;16.27;75.25
62402;BME280;48440;51.224;22.506;2023-06-14T12:24:08;99218.69;;;16.23;75.59
62402;BME280;48440;51.224;22.506;2023-06-14T12:26:41;99220.09;;;16.20;75.85
62402;BME280;48440;51.224;22.506;2023-06-14T12:29:07;99224.75;;;16.20;76.52
62402;BME280;48440;51.224;22.506;2023-06-14T12:31:33;99221.19;;;16.19;77.05
62402;BME280;48440;51.224;22.506;2023-06-14T12:33:58;99221.78;;;16.16;79.07
62402;BME280;48440;51.224;22.506;2023-06-14T12:36:24;99216.31;;;16.16;80.05
62402;BME280;48440;51.224;22.506;2023-06-14T12:38:51;99228.06;;;16.17;80.10
62402;BME280;48440;51.224;22.506;2023-06-14T12:41:21;99228.34;;;16.15;81.05
62402;BME280;48440;51.224;22.506;2023-06-14T12:43:48;99235.47;;;16.16;81.42
62402;BME280;48440;51.224;22.506;2023-06-14T12:46:13;99234.59;;;16.21;80.50
62402;BME280;48440;51.224;22.506;2023-06-14T12:48:39;99230.75;;;16.22;80.87
62402;BME280;48440;51.224;22.506;2023-06-14T12:51:04;99240.81;;;16.26;80.42
62402;BME280;48440;51.224;22.506;2023-06-14T12:53:30;99236.41;;;16.31;79.86
62402;BME280;48440;51.224;22.506;2023-06-14T12:55:55;99236.34;;;16.36;80.00
62402;BME280;48440;51.224;22.506;2023-06-14T12:58:21;99223.94;;;16.38;80.86
62402;BME280;48440;51.224;22.506;2023-06-14T13:00:48;99224.41;;;16.45;80.35
62402;BME280;48440;51.224;22.506;2023-06-14T13:03:14;99224.03;;;16.52;79.92
62402;BME280;48440;51.224;22.506;2023-06-14T13:05:40;99219.53;;;16.61;79.56
62402;BME280;48440;51.224;22.506;2023-06-14T13:08:07;99216.59;;;16.76;79.42
62402;BME280;48440;51.224;22.506;2023-06-14T13:10:34;99215.25;;;16.92;79.05
62402;BME280;48440;51.224;22.506;2023-06-14T13:12:59;99211.16;;;17.09;78.79
62402;BME280;48440;51.224;22.506;2023-06-14T13:15:26;99210.38;;;17.22;78.38
62402;BME280;48440;51.224;22.506;2023-06-14T13:17:54;99212.44;;;17.30;78.43
62402;BME280;48440;51.224;22.506;2023-06-14T13:20:20;99212.56;;;17.39;77.48
62402;BME280;48440;51.224;22.506;2023-06-14T13:22:46;99210.63;;;17.39;75.94
62402;BME280;48440;51.224;22.506;2023-06-14T13:25:11;99206.97;;;17.44;75.32
62402;BME280;48440;51.224;22.506;2023-06-14T13:27:37;99205.84;;;17.45;75.31
62402;BME280;48440;51.224;22.506;2023-06-14T13:30:03;99213.25;;;17.44;74.67
62402;BME280;48440;51.224;22.506;2023-06-14T13:32:30;99212.44;;;17.44;74.17
62402;BME280;48440;51.224;22.506;2023-06-14T13:34:56;99203.41;;;17.43;73.89
62402;BME280;48440;51.224;22.506;2023-06-14T13:37:21;99206.16;;;17.43;73.97
62402;BME280;48440;51.224;22.506;2023-06-14T13:39:47;99203.09;;;17.45;74.09
62402;BME280;48440;51.224;22.506;2023-06-14T13:42:12;99204.75;;;17.46;74.48
62402;BME280;48440;51.224;22.506;2023-06-14T13:44:38;99198.66;;;17.49;75.19
62402;BME280;48440;51.224;22.506;2023-06-14T13:47:03;99196.72;;;17.49;74.94
62402;BME280;48440;51.224;22.506;2023-06-14T13:49:29;99204.94;;;17.49;74.71
62402;BME280;48440;51.224;22.506;2023-06-14T13:51:55;99202.22;;;17.49;74.21
62402;BME280;48440;51.224;22.506;2023-06-14T13:54:20;99203.03;;;17.50;74.84
62402;BME280;48440;51.224;22.506;2023-06-14T13:56:49;99194.19;;;17.53;75.61
62402;BME280;48440;51.224;22.506;2023-06-14T13:59:15;99198.03;;;17.52;75.47
62402;BME280;48440;51.224;22.506;2023-06-14T14:01:41;99195.91;;;17.49;75.17
62402;BME280;48440;51.224;22.506;2023-06-14T14:04:07;99201.19;;;17.45;75.17
62402;BME280;48440;51.224;22.506;2023-06-14T14:06:32;99195.59;;;17.37;75.32
62402;BME280;48440;51.224;22.506;2023-06-14T14:08:58;99187.66;;;17.35;75.65
62402;BME280;48440;51.224;22.506;2023-06-14T14:11:24;99185.81;;;17.30;76.43
62402;BME280;48440;51.224;22.506;2023-06-14T14:13:49;99183.59;;;17.33;75.77
62402;BME280;48440;51.224;22.506;2023-06-14T14:16:15;99191.81;;;17.33;75.05
62402;BME280;48440;51.224;22.506;2023-06-14T14:18:41;99184.09;;;17.35;74.97
62402;BME280;48440;51.224;22.506;2023-06-14T14:21:06;99185.94;;;17.39;74.85
62402;BME280;48440;51.224;22.506;2023-06-14T14:23:32;99179.34;;;17.40;73.47
62402;BME280;48440;51.224;22.506;2023-06-14T14:25:57;99174.47;;;17.37;73.57
62402;BME280;48440;51.224;22.506;2023-06-14T14:28:23;99169.28;;;17.36;73.69
62402;BME280;48440;51.224;22.506;2023-06-14T14:30:48;99174.78;;;17.36;73.77
62402;BME280;48440;51.224;22.506;2023-06-14T14:33:15;99170.91;;;17.37;73.99
62402;BME280;48440;51.224;22.506;2023-06-14T14:35:44;99183.69;;;17.41;73.74
62402;BME280;48440;51.224;22.506;2023-06-14T14:38:14;99186.84;;;17.48;73.54
62402;BME280;48440;51.224;22.506;2023-06-14T14:40:40;99181.38;;;17.48;72.19
62402;BME280;48440;51.224;22.506;2023-06-14T14:43:06;99171.72;;;17.51;71.52
62402;BME280;48440;51.224;22.506;2023-06-14T14:45:32;99180.25;;;17.49;70.84
62402;BME280;48440;51.224;22.506;2023-06-14T14:47:58;99180.88;;;17.46;69.60
62402;BME280;48440;51.224;22.506;2023-06-14T14:50:25;99175.97;;;17.43;69.68
62402;BME280;48440;51.224;22.506;2023-06-14T14:52:50;99173.22;;;17.43;70.68
62402;BME280;48440;51.224;22.506;2023-06-14T14:55:16;99169.97;;;17.41;69.82
62402;BME280;48440;51.224;22.506;2023-06-14T14:57:42;99175.47;;;17.41;69.35
62402;BME280;48440;51.224;22.506;2023-06-14T15:00:08;99177.22;;;17.37;69.49
62402;BME280;48440;51.224;22.506;2023-06-14T15:02:34;99180.16;;;17.41;70.21
62402;BME280;48440;51.224;22.506;2023-06-14T15:05:00;99170.19;;;17.45;70.83
62402;BME280;48440;51.224;22.506;2023-06-14T15:07:30;99161.88;;;17.50;70.88
62402;BME280;48440;51.224;22.506;2023-06-14T15:09:57;99167.06;;;17.51;70.58
62402;BME280;48440;51.224;22.506;2023-06-14T15:12:22;99156.28;;;17.55;70.93
62402;BME280;48440;51.224;22.506;2023-06-14T15:14:52;99167.19;;;17.60;70.87
62402;BME280;48440;51.224;22.506;2023-06-14T15:17:19;99166.81;;;17.67;71.11
62402;BME280;48440;51.224;22.506;2023-06-14T15:19:45;99157.78;;;17.66;70.93
62402;BME280;48440;51.224;22.506;2023-06-14T15:22:11;99161.00;;;17.68;70.68
62402;BME280;48440;51.224;22.506;2023-06-14T15:24:37;99164.06;;;17.67;69.59
62402;BME280;48440;51.224;22.506;2023-06-14T15:27:02;99164.66;;;17.63;69.91
62402;BME280;48440;51.224;22.506;2023-06-14T15:29:28;99162.19;;;17.62;70.33
62402;BME280;48440;51.224;22.506;2023-06-14T15:31:53;99157.81;;;17.61;70.80
62402;BME280;48440;51.224;22.506;2023-06-14T15:34:20;99158.44;;;17.58;71.37
62402;BME280;48440;51.224;22.506;2023-06-14T15:36:46;99164.22;;;17.56;70.85
62402;BME280;48440;51.224;22.506;2023-06-14T15:39:11;99157.19;;;17.50;71.73
62402;BME280;48440;51.224;22.506;2023-06-14T15:41:37;99150.09;;;17.49;70.68
62402;BME280;48440;51.224;22.506;2023-06-14T15:44:03;99153.44;;;17.46;70.39
62402;BME280;48440;51.224;22.506;2023-06-14T15:46:28;99152.41;;;17.42;70.69
62402;BME280;48440;51.224;22.506;2023-06-14T15:48:54;99156.25;;;17.41;70.66
62402;BME280;48440;51.224;22.506;2023-06-14T15:51:19;99154.16;;;17.38;70.61
62402;BME280;48440;51.224;22.506;2023-06-14T15:53:45;99157.19;;;17.37;71.30
62402;BME280;48440;51.224;22.506;2023-06-14T15:56:10;99158.31;;;17.36;70.98
62402;BME280;48440;51.224;22.506;2023-06-14T15:58:35;99157.50;;;17.35;70.04
62402;BME280;48440;51.224;22.506;2023-06-14T16:01:01;99157.28;;;17.32;69.82
62402;BME280;48440;51.224;22.506;2023-06-14T16:03:26;99158.69;;;17.29;69.87
62402;BME280;48440;51.224;22.506;2023-06-14T16:05:52;99152.91;;;17.30;69.85
62402;BME280;48440;51.224;22.506;2023-06-14T16:08:17;99157.38;;;17.26;69.67
62402;BME280;48440;51.224;22.506;2023-06-14T16:10:43;99156.84;;;17.24;69.31
62402;BME280;48440;51.224;22.506;2023-06-14T16:13:09;99152.50;;;17.23;69.84
62402;BME280;48440;51.224;22.506;2023-06-14T16:15:34;99150.56;;;17.24;69.92
62402;BME280;48440;51.224;22.506;2023-06-14T16:18:00;99148.41;;;17.21;70.01
62402;BME280;48440;51.224;22.506;2023-06-14T16:20:25;99156.44;;;17.17;70.18
62402;BME280;48440;51.224;22.506;2023-06-14T16:22:51;99156.25;;;17.14;70.59
62402;BME280;48440;51.224;22.506;2023-06-14T16:25:16;99163.34;;;17.15;71.04
62402;BME280;48440;51.224;22.506;2023-06-14T16:27:42;99156.72;;;17.16;71.25
62402;BME280;48440;51.224;22.506;2023-06-14T16:30:08;99154.31;;;17.14;71.60
62402;BME280;48440;51.224;22.506;2023-06-14T16:32:33;99162.22;;;17.16;72.04
62402;BME280;48440;51.224;22.506;2023-06-14T16:34:59;99162.72;;;17.18;71.78